Time;durP1;ratioP1;P1;durP2;ratioP2;P2;SDS_P1;SDS_P2;PMS_P1;PMS_P2;Temp;Humidity;BMP_temperature;BMP_pressure;BME280_temperature;BME280_humidity;BME280_pressure;Samples;Min_cycle;Max_cycle;Signal;HPM_P1;HPM_P2
2021/04/22 00:01:32;;;;;;;22.60;12.95;;;;;;;13.27;50.20;99532.64;1715612;82;21176;-85
2021/04/22 00:04:02;;;;;;;22.82;12.70;;;;;;;13.31;50.18;99532.26;1729180;81;21217;-85
2021/04/22 00:06:34;;;;;;;23.07;12.07;;;;;;;13.22;50.12;99527.58;1701574;82;21199;-85
2021/04/22 00:09:08;;;;;;;32.17;13.32;;;;;;;13.25;49.85;99530.69;1716923;82;22156;-86
2021/04/22 00:11:37;;;;;;;25.00;12.33;;;;;;;13.25;49.89;99538.64;1719667;83;21123;-82
2021/04/22 00:14:05;;;;;;;25.50;12.50;;;;;;;12.91;50.33;99558.66;1698168;83;21222;-85
2021/04/22 00:16:33;;;;;;;23.47;13.00;;;;;;;12.69;51.04;99580.79;1714698;83;21220;-83
2021/04/22 00:19:00;;;;;;;24.98;12.40;;;;;;;12.43;51.92;99583.90;1719636;81;21185;-85
2021/04/22 00:21:26;;;;;;;23.00;12.53;;;;;;;12.61;51.97;99579.06;1717808;82;21221;-85
2021/04/22 00:23:55;;;;;;;21.93;12.40;;;;;;;12.51;52.49;99587.29;1720859;82;27077;-81
2021/04/22 00:26:23;;;;;;;26.55;12.60;;;;;;;12.52;52.81;99581.00;1718488;83;21091;-84
2021/04/22 00:28:49;;;;;;;24.55;11.90;;;;;;;12.44;53.24;99590.34;1722557;82;21189;-83
2021/04/22 00:31:15;;;;;;;26.02;13.13;;;;;;;12.41;53.53;99588.05;1718207;82;20944;-82
2021/04/22 00:33:44;;;;;;;23.02;12.78;;;;;;;12.39;53.66;99579.48;1714105;82;21283;-82
2021/04/22 00:36:09;;;;;;;23.70;12.58;;;;;;;12.41;53.89;99574.81;1720244;81;21220;-82
2021/04/22 00:38:38;;;;;;;21.82;12.43;;;;;;;12.53;53.71;99578.65;1720107;82;25459;-83
2021/04/22 00:41:05;;;;;;;23.47;13.30;;;;;;;12.46;54.01;99580.41;1692081;83;21338;-86
2021/04/22 00:43:33;;;;;;;25.10;13.68;;;;;;;12.52;53.70;99574.37;1719089;82;21139;-84
2021/04/22 00:46:01;;;;;;;;;;;;;;;12.47;53.89;99572.76;1723250;83;21950;-82
2021/04/22 00:48:30;;;;;;;20.97;13.20;;;;;;;12.49;54.13;99568.13;1722851;82;20297;-87
2021/04/22 00:50:59;;;;;;;27.60;13.80;;;;;;;12.45;54.13;99580.07;1716400;83;21201;-83
2021/04/22 00:53:25;;;;;;;25.85;13.45;;;;;;;12.31;54.77;99590.97;1697866;83;21234;-84
2021/04/22 00:55:55;;;;;;;25.25;14.85;;;;;;;12.09;55.63;99599.30;1715273;82;21185;-83
2021/04/22 00:58:23;;;;;;;26.23;14.33;;;;;;;12.07;56.00;99618.48;1717201;82;21465;-84
2021/04/22 01:00:56;;;;;;;30.25;15.48;;;;;;;12.03;56.44;99610.60;1715413;81;21190;-84
2021/04/22 01:03:25;;;;;;;26.48;15.18;;;;;;;11.95;57.09;99612.82;1714467;82;21642;-83
2021/04/22 01:05:57;;;;;;;29.05;15.95;;;;;;;12.02;57.24;99607.63;1693161;83;21210;-84
2021/04/22 01:08:29;;;;;;;28.95;15.48;;;;;;;12.08;57.30;99600.30;1714689;82;21222;-83
2021/04/22 01:10:58;;;;;;;31.45;16.32;;;;;;;12.03;57.92;99617.22;1716476;82;21032;-84
2021/04/22 01:13:27;;;;;;;29.85;16.05;;;;;;;12.18;57.83;99610.14;1716397;83;21225;-84
2021/04/22 01:15:53;;;;;;;30.52;16.17;;;;;;;12.27;57.98;99604.75;1691936;82;21680;-83
2021/04/22 01:18:19;;;;;;;28.73;15.68;;;;;;;12.33;57.91;99609.33;1715569;81;21328;-86
2021/04/22 01:20:52;;;;;;;24.67;15.48;;;;;;;12.36;57.97;99608.45;1715922;82;20927;-84
2021/04/22 01:23:18;;;;;;;30.20;15.83;;;;;;;12.40;58.12;99603.64;1716363;82;22381;-83
2021/04/22 01:25:47;;;;;;;26.30;14.90;;;;;;;12.55;57.75;99592.55;1717189;81;27632;-86
2021/04/22 01:28:16;;;;;;;26.95;15.65;;;;;;;12.52;58.05;99602.19;1714377;83;21191;-85
2021/04/22 01:30:46;;;;;;;25.88;14.95;;;;;;;12.64;57.79;99613.64;1715911;82;21197;-85
2021/04/22 01:33:15;;;;;;;24.72;14.60;;;;;;;12.67;57.80;99606.66;1716744;82;21185;-83
2021/04/22 01:35:42;;;;;;;27.37;15.20;;;;;;;12.73;57.69;99602.76;1719210;81;21178;-83
2021/04/22 01:38:11;;;;;;;21.95;13.88;;;;;;;12.74;57.93;99596.98;1719342;81;21174;-82
2021/04/22 01:40:40;;;;;;;24.82;13.62;;;;;;;12.84;57.40;99594.84;1717015;83;21199;-83
2021/04/22 01:43:06;;;;;;;22.55;13.22;;;;;;;12.88;57.29;99591.31;1717540;82;21197;-89
2021/04/22 01:45:32;;;;;;;20.45;13.10;;;;;;;12.87;56.99;99591.83;1714205;82;20986;-83
2021/04/22 01:47:59;;;;;;;21.10;12.85;;;;;;;12.91;56.75;99583.84;1717368;82;21428;-83
2021/04/22 01:50:28;;;;;;;22.22;12.33;;;;;;;12.89;56.59;99591.13;1718214;82;21055;-84
2021/04/22 01:52:56;;;;;;;15.78;10.70;;;;;;;12.86;56.07;99606.08;1717281;81;21225;-83
2021/04/22 01:55:26;;;;;;;16.62;10.32;;;;;;;12.83;55.60;99610.42;1720084;82;21191;-83
2021/04/22 01:57:57;;;;;;;20.72;10.63;;;;;;;12.63;55.32;99614.63;1719457;83;21210;-85
2021/04/22 02:00:32;;;;;;;15.03;9.73;;;;;;;12.59;55.35;99618.67;1718359;82;21450;-83
2021/04/22 02:03:04;;;;;;;18.73;10.65;;;;;;;12.67;55.35;99623.88;1718915;82;21178;-84
2021/04/22 02:05:33;;;;;;;16.93;10.00;;;;;;;12.53;55.54;99623.67;1722448;82;21197;-82
2021/04/22 02:08:00;;;;;;;14.03;9.90;;;;;;;12.36;55.76;99619.05;1722286;82;21202;-85
2021/04/22 02:10:28;;;;;;;16.62;8.90;;;;;;;12.20;56.08;99629.81;1698627;82;21194;-82
2021/04/22 02:12:54;;;;;;;;;;;;;;;12.28;56.04;99632.88;1725936;82;21132;-82
2021/04/22 02:15:27;;;;;;;17.05;9.33;;;;;;;12.14;56.19;99626.55;1720586;81;20749;-87
2021/04/22 02:17:53;;;;;;;13.68;9.38;;;;;;;12.04;56.50;99636.05;1721292;82;21235;-89
2021/04/22 02:20:23;;;;;;;12.63;8.78;;;;;;;11.94;56.87;99635.48;1698224;82;21155;-82
2021/04/22 02:22:51;;;;;;;14.78;9.83;;;;;;;12.12;56.54;99636.48;1698752;82;21248;-82
2021/04/22 02:25:22;;;;;;;15.28;9.50;;;;;;;12.28;56.24;99640.83;1720591;83;21174;-82
2021/04/22 02:27:48;;;;;;;15.35;9.38;;;;;;;12.18;56.51;99647.20;1720281;82;21161;-83
2021/04/22 02:30:21;;;;;;;14.47;9.85;;;;;;;12.12;56.85;99647.91;1700352;83;25388;-83
2021/04/22 02:32:51;;;;;;;15.80;9.75;;;;;;;12.28;56.55;99643.47;1704750;83;21675;-83
2021/04/22 02:35:25;;;;;;;16.42;10.32;;;;;;;12.24;56.86;99648.80;1716439;82;21971;-84
2021/04/22 02:37:51;;;;;;;18.17;11.30;;;;;;;11.91;59.15;99664.92;1717500;82;21241;-85
2021/04/22 02:40:20;;;;;;;17.77;11.28;;;;;;;11.88;59.99;99665.27;1717124;81;27188;-85
2021/04/22 02:42:45;;;;;;;18.40;10.98;;;;;;;11.71;60.36;99674.63;1719356;81;21647;-85
2021/04/22 02:45:15;;;;;;;17.05;10.20;;;;;;;11.57;60.42;99671.41;1717497;83;28775;-87
2021/04/22 02:47:44;;;;;;;15.25;10.08;;;;;;;11.31;60.64;99671.21;1718436;82;21207;-84
2021/04/22 02:50:13;;;;;;;14.68;9.18;;;;;;;11.25;60.82;99675.89;1723244;82;22329;-84
2021/04/22 02:52:40;;;;;;;16.25;9.30;;;;;;;11.19;60.66;99677.91;1727534;82;22355;-84
2021/04/22 02:55:08;;;;;;;14.63;8.55;;;;;;;11.12;60.94;99671.98;1725739;82;21387;-83
2021/04/22 02:57:35;;;;;;;14.05;9.15;;;;;;;10.96;61.18;99681.28;1725789;82;21213;-83
2021/04/22 03:00:05;;;;;;;12.35;8.58;;;;;;;10.77;61.83;99680.67;1726686;82;21167;-83
2021/04/22 03:02:32;;;;;;;15.25;9.23;;;;;;;10.76;61.76;99685.61;1724651;82;21590;-83
2021/04/22 03:05:02;;;;;;;17.73;8.93;;;;;;;10.75;61.66;99693.70;1725308;82;21640;-82
2021/04/22 03:07:29;;;;;;;14.47;9.53;;;;;;;10.74;61.88;99686.80;1723401;82;21166;-83
2021/04/22 03:09:55;;;;;;;12.95;9.78;;;;;;;10.87;61.68;99682.30;1721874;82;21192;-82
2021/04/22 03:12:20;;;;;;;14.50;9.73;;;;;;;10.97;61.69;99675.01;1721763;82;26966;-84
2021/04/22 03:14:52;;;;;;;14.15;10.10;;;;;;;11.01;61.98;99664.41;1720219;82;22245;-83
2021/04/22 03:17:18;;;;;;;16.20;11.08;;;;;;;10.94;62.80;99662.14;1721711;82;21257;-86
2021/04/22 03:19:46;;;;;;;17.35;10.78;;;;;;;10.93;62.99;99664.45;1723168;81;25261;-84
2021/04/22 03:22:15;;;;;;;19.65;10.85;;;;;;;10.96;63.32;99654.86;1695723;82;21166;-82
2021/04/22 03:24:41;;;;;;;18.42;11.93;;;;;;;11.08;62.73;99645.56;1724948;82;21182;-86
2021/04/22 03:27:08;;;;;;;15.90;11.12;;;;;;;11.17;62.61;99651.64;1726924;82;21955;-83
2021/04/22 03:29:34;;;;;;;16.70;11.43;;;;;;;11.11;63.05;99657.11;1728714;82;21067;-84
2021/04/22 03:32:05;;;;;;;15.25;10.80;;;;;;;11.09;63.28;99681.57;1724664;81;25830;-84
2021/04/22 03:34:34;;;;;;;18.17;11.55;;;;;;;10.92;64.13;99687.88;1724886;82;21177;-86
2021/04/22 03:37:01;;;;;;;18.15;11.22;;;;;;;10.91;64.32;99687.58;1725140;82;21225;-85
2021/04/22 03:39:30;;;;;;;20.00;12.35;;;;;;;10.77;65.15;99703.11;1701647;82;27100;-85
2021/04/22 03:42:01;;;;;;;17.35;10.82;;;;;;;10.72;65.20;99699.32;1730124;81;21097;-88
2021/04/22 03:44:33;;;;;;;17.55;10.05;;;;;;;10.77;64.72;99698.34;1724842;82;21612;-84
2021/04/22 03:47:03;;;;;;;16.02;8.95;;;;;;;10.60;63.73;99713.39;1723635;82;21670;-82
2021/04/22 03:49:31;;;;;;;12.63;8.33;;;;;;;10.54;62.75;99719.34;1698189;82;21166;-84
2021/04/22 03:51:58;;;;;;;13.32;8.05;;;;;;;10.30;62.80;99724.93;1724761;81;22509;-82
2021/04/22 03:54:26;;;;;;;11.70;7.03;;;;;;;10.30;61.96;99723.61;1719989;81;21632;-82
2021/04/22 03:56:52;;;;;;;12.55;7.15;;;;;;;10.27;61.69;99740.25;1721543;82;21195;-82
2021/04/22 03:59:20;;;;;;;13.32;6.53;;;;;;;10.19;61.47;99728.72;1719712;82;28578;-81
2021/04/22 04:01:47;;;;;;;;;;;;;;;10.15;61.11;99737.13;1697598;82;21201;-84
2021/04/22 04:04:13;;;;;;;;;;;;;;;10.17;60.68;99722.76;1703433;82;20273;-84
2021/04/22 04:06:42;;;;;;;11.10;6.03;;;;;;;10.03;60.46;99716.31;1722015;81;20251;-82
2021/04/22 04:09:10;;;;;;;15.23;6.10;;;;;;;10.02;60.30;99726.55;1719298;82;21206;-84
2021/04/22 04:11:39;;;;;;;13.93;6.05;;;;;;;10.14;59.92;99732.32;1723221;81;21205;-83
2021/04/22 04:14:11;;;;;;;11.40;5.80;;;;;;;10.01;60.31;99733.31;1694358;82;21584;-82
2021/04/22 04:16:37;;;;;;;13.88;6.28;;;;;;;10.12;60.26;99715.02;1719504;82;21455;-84
2021/04/22 04:19:05;;;;;;;11.43;5.53;;;;;;;10.05;60.54;99726.23;1669037;82;27139;-84
2021/04/22 04:21:32;;;;;;;10.35;5.53;;;;;;;9.98;60.80;99750.28;1718295;82;21206;-86
2021/04/22 04:24:02;;;;;;;13.28;6.20;;;;;;;10.14;60.74;99736.78;1722683;82;21234;-84
2021/04/22 04:26:29;;;;;;;12.18;5.53;;;;;;;10.13;61.05;99735.13;1723830;81;21723;-82
2021/04/22 04:28:57;;;;;;;12.15;5.75;;;;;;;9.79;62.72;99759.78;1726889;82;21413;-83
2021/04/22 04:31:25;;;;;;;14.00;6.17;;;;;;;9.87;63.52;99757.19;1726568;82;21660;-82
2021/04/22 04:33:55;;;;;;;10.60;5.47;;;;;;;9.63;64.97;99768.00;1726142;82;21179;-84
2021/04/22 04:36:23;;;;;;;11.55;5.58;;;;;;;9.61;65.67;99777.05;1695821;82;21795;-81
2021/04/22 04:38:52;;;;;;;12.35;5.35;;;;;;;9.70;65.54;99772.95;1720164;82;21210;-82
2021/04/22 04:41:27;;;;;;;11.55;5.60;;;;;;;9.68;66.41;99788.11;1722788;82;22642;-82
2021/04/22 04:43:52;;;;;;;13.48;5.92;;;;;;;9.68;66.77;99787.30;1725489;82;21645;-82
2021/04/22 04:46:18;;;;;;;13.13;6.12;;;;;;;9.51;68.59;99795.63;1698293;82;25866;-86
2021/04/22 04:48:45;;;;;;;10.95;5.50;;;;;;;9.61;67.66;99793.67;1716986;82;28844;-83
2021/04/22 04:51:14;;;;;;;11.33;5.80;;;;;;;9.49;67.66;99788.35;1722764;82;21126;-81
2021/04/22 04:53:44;;;;;;;12.75;6.42;;;;;;;9.18;69.08;99790.17;1721287;83;22049;-86
2021/04/22 04:56:17;;;;;;;13.22;6.97;;;;;;;8.92;69.63;99821.30;1700693;83;21616;-82
2021/04/22 04:58:42;;;;;;;11.73;6.90;;;;;;;8.77;69.68;99820.19;1719290;81;21565;-85
2021/04/22 05:01:08;;;;;;;13.13;6.60;;;;;;;8.89;69.84;99807.12;1720246;83;21161;-85
2021/04/22 05:03:38;;;;;;;12.28;6.05;;;;;;;8.82;70.47;99812.66;1712449;81;26699;-90
2021/04/22 05:06:05;;;;;;;11.65;6.15;;;;;;;8.50;71.50;99823.73;1711741;82;21359;-83
2021/04/22 05:08:33;;;;;;;13.72;6.83;;;;;;;8.49;73.35;99838.70;1720151;83;21179;-83
2021/04/22 05:11:02;;;;;;;11.43;4.67;;;;;;;8.33;73.44;99833.24;1710832;83;21576;-84
2021/04/22 05:13:28;;;;;;;10.78;4.50;;;;;;;8.05;71.08;99869.63;1716981;82;21647;-85
2021/04/22 05:16:01;;;;;;;11.53;4.85;;;;;;;7.74;73.27;99852.01;1718085;83;21138;-84
2021/04/22 05:18:30;;;;;;;9.15;3.65;;;;;;;7.71;73.65;99850.48;1720112;82;21203;-83
2021/04/22 05:20:59;;;;;;;8.65;4.12;;;;;;;7.02;75.61;99851.64;1716688;83;21172;-81
2021/04/22 05:23:25;;;;;;;12.25;4.28;;;;;;;7.05;75.83;99851.36;1708838;82;21265;-85
2021/04/22 05:25:54;;;;;;;9.93;4.45;;;;;;;7.13;75.69;99841.01;1713870;82;21208;-83
2021/04/22 05:28:25;;;;;;;9.45;4.53;;;;;;;7.00;76.17;99841.28;1721294;81;21173;-84
2021/04/22 05:30:53;;;;;;;9.38;4.83;;;;;;;7.31;75.31;99845.02;1721635;82;21176;-82
2021/04/22 05:33:21;;;;;;;;;;;;;;;7.34;76.04;99849.17;1722205;81;21664;-84
2021/04/22 05:35:52;;;;;;;10.23;4.60;;;;;;;6.95;76.48;99861.06;1718472;83;20293;-85
2021/04/22 05:38:19;;;;;;;8.55;4.08;;;;;;;7.10;76.20;99850.48;1720033;82;21166;-84
2021/04/22 05:40:48;;;;;;;12.07;4.53;;;;;;;7.05;75.73;99851.36;1718849;81;26900;-84
2021/04/22 05:43:16;;;;;;;10.38;4.65;;;;;;;7.18;75.78;99857.16;1720676;82;22011;-89
2021/04/22 05:45:44;;;;;;;12.33;4.78;;;;;;;7.36;76.91;99859.89;1719498;82;21193;-82
2021/04/22 05:48:14;;;;;;;;;;;;;;;7.32;76.18;99856.37;1717108;83;21747;-85
2021/04/22 05:50:44;;;;;;;8.33;3.90;;;;;;;7.40;77.47;99856.48;1703425;83;20262;-83
2021/04/22 05:53:11;;;;;;;9.90;4.40;;;;;;;7.30;76.66;99866.17;1704184;82;21180;-83
2021/04/22 05:55:37;;;;;;;8.88;4.17;;;;;;;7.53;77.42;99864.04;1708286;82;21335;-84
2021/04/22 05:58:03;;;;;;;12.23;4.78;;;;;;;7.67;76.90;99862.25;1698793;83;21259;-85
2021/04/22 06:00:33;;;;;;;11.33;5.23;;;;;;;7.78;77.05;99858.61;1702672;83;20945;-85
2021/04/22 06:03:08;;;;;;;12.47;4.67;;;;;;;7.59;77.89;99865.28;1707721;83;22019;-87
2021/04/22 06:05:35;;;;;;;11.88;4.28;;;;;;;7.87;76.65;99862.18;1707723;83;21198;-85
2021/04/22 06:08:05;;;;;;;11.70;4.70;;;;;;;7.82;76.90;99866.56;1706415;82;22509;-84
2021/04/22 06:10:33;;;;;;;13.72;5.20;;;;;;;7.81;77.17;99877.22;1707480;82;21179;-85
2021/04/22 06:13:02;;;;;;;10.98;4.70;;;;;;;7.70;77.66;99880.86;1706185;82;21187;-84
2021/04/22 06:15:31;;;;;;;10.63;4.08;;;;;;;7.56;77.06;99871.64;1701871;82;21187;-82
2021/04/22 06:17:58;;;;;;;10.43;4.62;;;;;;;7.81;77.36;99875.91;1710230;82;21185;-90
2021/04/22 06:20:26;;;;;;;13.75;5.12;;;;;;;7.89;77.61;99876.84;1666879;83;21198;-82
2021/04/22 06:22:56;;;;;;;12.85;4.42;;;;;;;7.77;77.57;99875.38;1713530;82;21195;-82
2021/04/22 06:25:25;;;;;;;12.55;4.92;;;;;;;7.79;77.43;99878.67;1693067;82;21223;-85
2021/04/22 06:27:53;;;;;;;12.80;5.00;;;;;;;7.66;78.40;99878.16;1706593;83;21164;-83
2021/04/22 06:30:27;;;;;;;16.80;5.97;;;;;;;7.65;78.63;99885.23;1712923;83;21219;-86
2021/04/22 06:32:54;;;;;;;14.78;5.22;;;;;;;7.94;77.91;99888.70;1704172;82;21257;-84
2021/04/22 06:35:22;;;;;;;11.38;5.10;;;;;;;8.12;77.77;99889.59;1700591;82;21053;-83
2021/04/22 06:37:52;;;;;;;12.90;5.30;;;;;;;8.26;76.74;99891.74;1702640;83;21172;-84
2021/04/22 06:40:24;;;;;;;13.55;5.08;;;;;;;8.15;76.97;99897.19;1710398;83;21212;-88
2021/04/22 06:42:54;;;;;;;11.85;4.95;;;;;;;8.05;77.10;99895.11;1706114;82;21177;-87
2021/04/22 06:45:23;;;;;;;14.65;5.30;;;;;;;8.04;77.62;99897.39;1708990;82;21360;-87
2021/04/22 06:47:50;;;;;;;17.25;5.67;;;;;;;8.12;77.14;99892.22;1700212;82;21219;-90
2021/04/22 06:50:19;;;;;;;15.38;5.20;;;;;;;8.23;77.53;99897.30;1674765;83;26733;-91
2021/04/22 06:52:49;;;;;;;12.82;5.22;;;;;;;8.38;77.42;99902.05;1717614;81;21630;-86
2021/04/22 06:55:26;;;;;;;13.55;5.30;;;;;;;8.36;77.48;99911.88;1721209;81;21701;-86
2021/04/22 06:57:53;;;;;;;12.93;5.70;;;;;;;8.26;76.10;99900.95;1720041;81;21717;-85
2021/04/22 07:00:22;;;;;;;17.45;5.50;;;;;;;8.47;75.72;99895.08;1721362;81;20977;-85
2021/04/22 07:02:50;;;;;;;;;;;;;;;8.66;75.07;99885.75;1696955;83;21220;-82
2021/04/22 07:05:16;;;;;;;13.72;5.12;;;;;;;8.61;74.31;99895.41;1720133;81;20274;-83
2021/04/22 07:07:50;;;;;;;17.67;5.20;;;;;;;8.62;71.42;99891.81;1694032;83;21180;-85
2021/04/22 07:10:17;;;;;;;13.08;4.90;;;;;;;8.53;70.92;99894.48;1719938;82;22030;-85
2021/04/22 07:12:43;;;;;;;15.35;4.70;;;;;;;8.55;70.63;99898.64;1692427;83;21187;-83
2021/04/22 07:15:09;;;;;;;16.37;4.70;;;;;;;8.69;68.58;99909.64;1720301;82;24983;-85
2021/04/22 07:17:36;;;;;;;16.20;4.80;;;;;;;8.74;70.13;99908.69;1719251;83;21168;-86
2021/04/22 07:20:10;;;;;;;13.65;5.03;;;;;;;8.62;67.64;99893.13;1717667;83;21453;-86
2021/04/22 07:22:38;;;;;;;15.08;4.92;;;;;;;8.62;67.64;99893.13;1721299;81;21212;-82
2021/04/22 07:25:09;;;;;;;15.80;4.80;;;;;;;8.79;64.77;99910.37;1718720;82;21270;-82
2021/04/22 07:27:37;;;;;;;13.50;4.50;;;;;;;8.43;63.83;99923.48;1720687;81;21224;-85
2021/04/22 07:30:06;;;;;;;15.28;4.65;;;;;;;8.42;64.24;99941.55;1720412;82;21167;-85
2021/04/22 07:32:37;;;;;;;11.40;4.08;;;;;;;8.56;63.53;99931.89;1693127;83;21139;-85
2021/04/22 07:35:08;;;;;;;13.48;4.47;;;;;;;8.44;63.21;99940.47;1720322;81;21136;-85
2021/04/22 07:37:40;;;;;;;16.90;4.25;;;;;;;8.62;62.45;99936.56;1720332;81;21167;-83
2021/04/22 07:40:12;;;;;;;14.45;4.00;;;;;;;8.53;62.48;99937.45;1719069;83;21633;-82
2021/04/22 07:42:38;;;;;;;13.43;4.28;;;;;;;8.44;60.83;99952.80;1720516;82;22307;-86
2021/04/22 07:45:06;;;;;;;15.88;4.08;;;;;;;8.40;59.20;99968.50;1718300;83;26803;-84
2021/04/22 07:47:32;;;;;;;15.55;4.08;;;;;;;8.15;54.70;99967.38;1690521;81;21613;-84
2021/04/22 07:50:03;;;;;;;15.13;4.03;;;;;;;7.99;53.20;99962.25;1722385;81;21136;-84
2021/04/22 07:52:31;;;;;;;13.05;3.55;;;;;;;8.04;52.52;99977.59;1721212;82;21230;-85
2021/04/22 07:54:57;;;;;;;17.12;3.98;;;;;;;8.05;51.86;99964.80;1701571;82;21140;-82
2021/04/22 07:57:23;;;;;;;12.23;3.22;;;;;;;8.10;50.80;99961.23;1722115;83;26785;-83
2021/04/22 07:59:54;;;;;;;20.75;3.87;;;;;;;7.93;50.74;99973.84;1720694;81;21833;-86
2021/04/22 08:02:20;;;;;;;14.85;3.37;;;;;;;7.96;50.95;99970.42;1703312;82;21218;-85
2021/04/22 08:04:52;;;;;;;10.88;3.50;;;;;;;8.07;51.26;99951.01;1680711;83;21642;-85
2021/04/22 08:07:20;;;;;;;15.23;3.85;;;;;;;8.10;51.82;99958.61;1717234;83;21636;-84
2021/04/22 08:09:46;;;;;;;;;;;;;;;7.88;52.58;99973.77;1718107;83;21589;-85
2021/04/22 08:12:12;;;;;;;15.18;3.98;;;;;;;7.75;52.47;99985.06;1719816;82;21770;-86
2021/04/22 08:14:39;;;;;;;19.57;4.03;;;;;;;7.80;52.96;99974.98;1721005;82;21191;-86
2021/04/22 08:17:04;;;;;;;15.78;4.00;;;;;;;7.66;53.35;99962.27;1720666;83;21186;-85
2021/04/22 08:19:35;;;;;;;18.70;3.95;;;;;;;7.83;53.69;99982.58;1698202;82;28479;-86
2021/04/22 08:22:01;;;;;;;16.85;4.37;;;;;;;7.89;53.91;99960.98;1686002;82;36420;-86
2021/04/22 08:24:27;;;;;;;16.50;4.22;;;;;;;8.20;53.89;99954.15;1716252;82;21535;-87
2021/04/22 08:26:54;;;;;;;16.42;4.25;;;;;;;8.23;53.97;99960.44;1720821;81;27038;-86
2021/04/22 08:29:29;;;;;;;15.72;4.00;;;;;;;8.29;54.03;99959.50;1719366;81;21169;-85
2021/04/22 08:31:55;;;;;;;13.58;3.75;;;;;;;8.21;54.27;99978.14;1700088;82;21198;-80
2021/04/22 08:34:23;;;;;;;19.75;3.90;;;;;;;8.06;52.06;99942.77;1720878;82;21461;-84
2021/04/22 08:36:54;;;;;;;16.62;4.20;;;;;;;7.95;50.55;99966.62;1719007;83;21042;-86
2021/04/22 08:39:22;;;;;;;15.58;3.90;;;;;;;8.02;49.91;99995.33;1718404;81;21189;-87
2021/04/22 08:41:47;;;;;;;;;;;;;;;8.02;50.10;99984.81;1717557;83;21189;-87
2021/04/22 08:44:14;;;;;;;17.07;3.92;;;;;;;8.07;50.28;99963.66;1718543;82;28462;-84
2021/04/22 08:46:47;;;;;;;14.75;3.67;;;;;;;8.16;48.86;99980.39;1709126;83;27168;-86
2021/04/22 08:49:14;;;;;;;13.62;3.50;;;;;;;8.30;47.22;99984.34;1716660;82;21227;-82
2021/04/22 08:51:41;;;;;;;11.97;3.55;;;;;;;8.32;46.72;99990.78;1715506;81;21189;-85
2021/04/22 08:54:10;;;;;;;12.43;3.75;;;;;;;8.11;44.75;100018.61;1705643;83;21188;-83
2021/04/22 08:56:39;;;;;;;11.45;3.60;;;;;;;8.13;45.67;99980.67;1701642;83;21187;-83
2021/04/22 08:59:07;;;;;;;15.03;3.50;;;;;;;8.30;45.29;100041.38;1698874;82;21664;-82
2021/04/22 09:01:37;;;;;;;16.15;3.90;;;;;;;8.22;45.12;99982.94;1699512;81;21425;-84
2021/04/22 09:04:05;;;;;;;13.93;4.00;;;;;;;8.29;43.86;100000.28;1701230;83;21057;-83
2021/04/22 09:06:34;;;;;;;13.28;3.70;;;;;;;8.40;45.41;100000.89;1700625;82;21225;-82
2021/04/22 09:09:03;;;;;;;19.15;3.70;;;;;;;8.42;46.06;100006.02;1704386;82;21156;-89
2021/04/22 09:11:31;;;;;;;13.60;3.83;;;;;;;8.67;46.44;99975.59;1699297;83;21720;-83
2021/04/22 09:13:57;;;;;;;16.70;4.10;;;;;;;8.49;46.15;99998.42;1704457;83;21209;-84
2021/04/22 09:16:27;;;;;;;12.78;3.67;;;;;;;8.54;46.28;99983.83;1705384;81;27053;-87
2021/04/22 09:18:58;;;;;;;14.18;3.52;;;;;;;8.40;45.88;99998.27;1700404;83;21238;-85
2021/04/22 09:21:30;;;;;;;16.07;4.15;;;;;;;8.60;45.18;99987.19;1703446;83;21193;-86
2021/04/22 09:24:12;;;;;;;14.78;3.65;;;;;;;8.74;45.18;100004.78;1713019;83;21220;-83
2021/04/22 09:26:51;;;;;;;16.10;3.80;;;;;;;8.79;44.68;100002.52;1698406;83;21287;-83
2021/04/22 09:29:35;;;;;;;17.20;3.80;;;;;;;8.60;45.45;100000.84;1714987;81;21199;-82
2021/04/22 09:32:20;;;;;;;19.20;3.83;;;;;;;8.78;45.65;99974.56;1718429;81;21180;-84
2021/04/22 09:34:59;;;;;;;14.65;3.60;;;;;;;9.15;45.21;100002.55;1704522;81;21684;-86
2021/04/22 09:37:44;;;;;;;14.93;4.00;;;;;;;9.09;44.48;100018.95;1706019;81;21191;-81
2021/04/22 09:40:22;;;;;;;17.05;4.60;;;;;;;9.15;45.43;99989.38;1711117;81;21256;-81
2021/04/22 09:42:47;;;;;;;;;;;;;;;9.07;45.19;99991.95;1706068;81;21708;-79
2021/04/22 09:45:16;;;;;;;17.70;4.40;;;;;;;9.17;44.95;99983.48;1715390;82;25484;-82
2021/04/22 09:47:43;;;;;;;13.48;3.80;;;;;;;8.88;44.97;100005.59;1700850;82;21171;-80
2021/04/22 09:50:16;;;;;;;15.35;4.17;;;;;;;9.07;45.85;99998.53;1709531;81;21172;-80
2021/04/22 09:52:50;;;;;;;13.58;3.80;;;;;;;9.19;45.61;99996.01;1717187;81;21192;-79
2021/04/22 09:55:19;;;;;;;15.55;3.85;;;;;;;9.38;45.46;99976.56;1700109;81;21203;-82
2021/04/22 09:57:49;;;;;;;16.35;4.17;;;;;;;9.19;43.91;99989.42;1709139;83;21163;-83
2021/04/22 10:00:32;;;;;;;18.70;4.45;;;;;;;9.26;44.48;100027.37;1704554;83;21239;-82
2021/04/22 10:03:08;;;;;;;16.75;3.95;;;;;;;9.57;45.06;99986.13;1686133;82;21192;-84
2021/04/22 10:05:35;;;;;;;15.20;4.42;;;;;;;9.58;45.12;100011.48;1702196;82;21203;-81
2021/04/22 10:08:15;;;;;;;15.23;4.03;;;;;;;9.55;44.89;100011.79;1711346;83;21120;-84
2021/04/22 10:11:00;;;;;;;19.42;3.98;;;;;;;9.43;44.58;100006.41;1707291;82;21233;-82
2021/04/22 10:13:26;;;;;;;12.63;3.77;;;;;;;9.41;44.00;99989.44;1708933;81;21156;-83
2021/04/22 10:15:58;;;;;;;14.87;4.10;;;;;;;9.53;43.99;99991.35;1708597;83;21625;-81
2021/04/22 10:18:39;;;;;;;15.68;3.87;;;;;;;9.81;44.28;99988.58;1709023;83;21340;-87
2021/04/22 10:21:05;;;;;;;12.45;3.35;;;;;;;9.75;43.65;100002.39;1705233;83;21175;-81
2021/04/22 10:23:32;;;;;;;18.10;3.75;;;;;;;9.78;43.18;100017.40;1709308;81;21465;-87
2021/04/22 10:26:00;;;;;;;18.48;4.42;;;;;;;9.70;43.03;100001.03;1715228;81;21615;-85
2021/04/22 10:28:27;;;;;;;15.35;4.42;;;;;;;9.58;44.97;100016.75;1704769;81;21613;-85
2021/04/22 10:30:56;;;;;;;18.35;4.03;;;;;;;10.00;45.09;99981.75;1676848;83;21422;-84
2021/04/22 10:33:23;;;;;;;14.20;3.50;;;;;;;10.05;43.63;100003.24;1699136;81;21610;-84
2021/04/22 10:35:49;;;;;;;14.60;3.77;;;;;;;9.88;43.58;100001.00;1703859;83;21058;-86
2021/04/22 10:38:18;;;;;;;11.40;3.50;;;;;;;9.90;42.55;100002.16;1700015;83;21169;-83
2021/04/22 10:40:49;;;;;;;11.22;3.58;;;;;;;10.08;42.94;99991.52;1693858;83;21191;-84
2021/04/22 10:43:21;;;;;;;13.32;3.92;;;;;;;10.10;42.63;99986.94;1702209;83;21466;-86
2021/04/22 10:45:49;;;;;;;14.50;3.80;;;;;;;10.21;43.17;99991.12;1707016;83;21193;-86
2021/04/22 10:48:17;;;;;;;10.72;3.30;;;;;;;10.22;42.07;99979.55;1710556;81;21179;-85
2021/04/22 10:50:48;;;;;;;16.32;3.70;;;;;;;10.39;42.17;99999.81;1703108;83;21155;-83
2021/04/22 10:53:21;;;;;;;13.13;3.52;;;;;;;10.31;41.75;99978.61;1700078;82;21191;-88
2021/04/22 10:55:51;;;;;;;11.60;3.42;;;;;;;10.45;42.62;100019.95;1703735;82;21236;-82
2021/04/22 10:58:29;;;;;;;14.87;4.03;;;;;;;10.40;42.45;99990.89;1700098;83;21196;-87
2021/04/22 11:01:04;;;;;;;13.00;3.22;;;;;;;10.70;41.94;99984.70;1703242;83;21187;-82
2021/04/22 11:03:38;;;;;;;14.43;4.08;;;;;;;10.71;41.61;99978.95;1708954;82;21694;-80
2021/04/22 11:06:11;;;;;;;12.78;3.55;;;;;;;10.36;42.42;99990.05;1705438;82;21152;-85
2021/04/22 11:08:44;;;;;;;15.15;4.03;;;;;;;10.72;42.61;99989.36;1704347;83;21180;-84
2021/04/22 11:11:30;;;;;;;14.80;3.98;;;;;;;10.51;42.19;100021.95;1706744;83;21172;-86
2021/04/22 11:14:19;;;;;;;10.20;3.20;;;;;;;10.71;42.10;99999.58;1703281;82;21582;-83
2021/04/22 11:16:55;;;;;;;11.45;3.37;;;;;;;10.57;41.66;100012.08;1696511;83;21184;-79
2021/04/22 11:19:40;;;;;;;10.70;2.90;;;;;;;10.88;41.81;99975.86;1708152;83;21120;-83
2021/04/22 11:22:18;;;;;;;11.97;3.10;;;;;;;10.85;41.43;100011.84;1707563;82;21267;-82
2021/04/22 11:25:04;;;;;;;;;;;;;;;10.69;39.61;100035.05;1704690;82;21215;-79
2021/04/22 11:27:33;;;;;;;11.90;3.20;;;;;;;10.61;40.58;100002.83;1684308;83;20207;-85
2021/04/22 11:30:05;;;;;;;10.58;3.35;;;;;;;10.55;41.61;100014.88;1701632;83;21176;-86
2021/04/22 11:32:34;;;;;;;11.20;2.75;;;;;;;10.49;40.42;99998.86;1677548;83;21215;-82
2021/04/22 11:35:14;;;;;;;14.75;3.50;;;;;;;10.64;41.70;100003.02;1699137;83;21240;-83
2021/04/22 11:37:47;;;;;;;13.15;3.35;;;;;;;10.56;41.97;99989.30;1688403;83;21212;-83
2021/04/22 11:40:27;;;;;;;11.15;2.83;;;;;;;10.73;41.35;100006.84;1696975;83;21733;-83